createdAt,value
2023-01-25T00:02:05.659Z,45.33
2023-01-25T00:07:10.884Z,38.30
2023-01-25T00:12:19.978Z,38.33
2023-01-25T00:17:21.678Z,45.50
2023-01-25T00:22:23.430Z,42.10
2023-01-25T00:27:27.674Z,42.83
2023-01-25T00:32:37.469Z,44.80
2023-01-25T00:37:50.163Z,47.30
2023-01-25T00:42:52.956Z,44.77
2023-01-25T00:47:59.615Z,48.20
2023-01-25T00:53:04.312Z,49.63
2023-01-25T00:58:08.345Z,49.13
2023-01-25T01:03:13.142Z,53.87
2023-01-25T01:08:17.375Z,45.57
2023-01-25T01:13:20.070Z,47.77
2023-01-25T01:18:22.988Z,47.50
2023-01-25T01:23:27.739Z,48.07
2023-01-25T01:28:30.636Z,40.23
2023-01-25T01:33:37.958Z,51.13
2023-01-25T01:38:42.502Z,47.20
2023-01-25T01:43:45.996Z,50.00
2023-01-25T01:49:01.930Z,44.77
2023-01-25T01:54:12.675Z,57.93
2023-01-25T01:59:14.561Z,55.67
2023-01-25T02:04:19.003Z,59.33
2023-01-25T02:09:31.927Z,53.87
2023-01-25T02:14:37.909Z,55.13
2023-01-25T02:19:54.289Z,58.77
2023-01-25T02:25:06.171Z,49.97
2023-01-25T02:30:11.066Z,59.63
2023-01-25T02:35:20.350Z,61.83
2023-01-25T02:40:24.647Z,61.07
2023-01-25T02:45:32.151Z,59.53
2023-01-25T02:50:33.870Z,62.07
2023-01-25T02:55:38.476Z,66.33
2023-01-25T03:00:43.161Z,60.27
2023-01-25T03:05:46.728Z,70.90
2023-01-25T03:10:54.104Z,74.80
2023-01-25T03:16:05.183Z,70.53
2023-01-25T03:21:19.680Z,72.97
2023-01-25T03:26:28.939Z,68.27
2023-01-25T03:31:47.621Z,67.43
2023-01-25T03:36:52.371Z,69.60
2023-01-25T03:41:58.541Z,62.27
2023-01-25T03:47:00.318Z,60.50
2023-01-25T03:52:04.057Z,57.50
2023-01-25T03:57:13.023Z,52.43
2023-01-25T04:02:23.932Z,57.50
2023-01-25T04:07:28.351Z,54.43
2023-01-25T04:12:36.152Z,56.10
2023-01-25T04:17:40.399Z,55.93
2023-01-25T04:22:58.939Z,56.63
2023-01-25T04:28:10.089Z,47.80
2023-01-25T04:33:18.816Z,58.10
2023-01-25T04:38:23.275Z,57.00
2023-01-25T04:43:27.839Z,52.43
2023-01-25T04:48:39.045Z,65.80
2023-01-25T04:53:42.267Z,64.13
2023-01-25T04:58:47.295Z,70.87
2023-01-25T05:03:49.112Z,72.30
2023-01-25T05:09:04.644Z,78.53
2023-01-25T05:14:09.038Z,77.10
2023-01-25T05:19:17.286Z,83.13
2023-01-25T05:24:29.386Z,77.83
2023-01-25T05:29:37.627Z,82.07
2023-01-25T05:34:43.455Z,81.40
2023-01-25T05:39:50.234Z,69.67
2023-01-25T05:44:54.565Z,73.80
2023-01-25T05:49:59.015Z,66.70
2023-01-25T05:55:19.645Z,71.37
2023-01-25T06:00:27.677Z,64.63
2023-01-25T06:05:33.618Z,68.87
2023-01-25T06:10:40.609Z,77.70
2023-01-25T06:15:42.392Z,78.30
2023-01-25T06:21:10.687Z,72.03
2023-01-25T06:26:19.843Z,72.93
2023-01-25T06:31:24.745Z,69.83
2023-01-25T06:36:31.353Z,68.33
2023-01-25T06:41:33.231Z,73.73
2023-01-25T06:46:37.594Z,71.67
2023-01-25T06:51:41.606Z,60.90
2023-01-25T06:56:45.456Z,74.43
2023-01-25T07:01:50.170Z,70.60
2023-01-25T07:06:52.064Z,74.97
2023-01-25T07:11:53.783Z,70.93
2023-01-25T07:16:58.075Z,74.37
2023-01-25T07:22:00.336Z,72.63
2023-01-25T07:27:04.284Z,71.70
2023-01-25T07:32:06.657Z,67.83
2023-01-25T07:37:10.823Z,69.93
2023-01-25T07:42:19.587Z,68.77
2023-01-25T07:47:41.455Z,79.57
2023-01-25T07:52:46.009Z,70.83
2023-01-25T07:57:51.227Z,76.37
2023-01-25T08:02:55.125Z,73.87
2023-01-25T08:07:59.112Z,85.33
2023-01-25T08:13:10.613Z,83.37
2023-01-25T08:18:14.803Z,87.82
2023-01-25T08:23:21.161Z,98.43
2023-01-25T08:28:22.927Z,91.90
2023-01-25T08:33:26.918Z,92.35
2023-01-25T08:38:30.972Z,84.73
2023-01-25T08:43:32.812Z,76.40
2023-01-25T08:48:39.928Z,96.13
2023-01-25T08:53:41.811Z,87.67
2023-01-25T08:58:47.636Z,92.23
2023-01-25T09:03:57.454Z,81.10
2023-01-25T09:09:01.964Z,92.17
2023-01-25T09:14:06.015Z,87.67
2023-01-25T09:19:10.022Z,87.73
2023-01-25T09:24:11.842Z,92.00
2023-01-25T09:29:18.373Z,89.13
2023-01-25T09:34:26.531Z,76.27
2023-01-25T09:39:30.909Z,86.37
2023-01-25T09:45:01.792Z,74.83
2023-01-25T09:50:16.521Z,83.13
2023-01-25T09:55:22.746Z,71.93
2023-01-25T10:00:38.838Z,74.97
2023-01-25T10:05:54.637Z,89.10
2023-01-25T10:11:03.722Z,86.43
2023-01-25T10:16:25.974Z,84.50
2023-01-25T10:21:35.791Z,89.83
2023-01-25T10:26:39.727Z,86.07
2023-01-25T10:31:50.555Z,64.47
2023-01-25T10:37:06.776Z,80.27
2023-01-25T10:42:12.298Z,86.47
2023-01-25T10:47:17.015Z,86.97
2023-01-25T10:52:26.081Z,82.97
2023-01-25T10:57:30.571Z,74.80
2023-01-25T11:02:44.568Z,78.93
2023-01-25T11:07:46.886Z,85.03
2023-01-25T11:12:53.214Z,88.80
2023-01-25T11:18:14.179Z,71.17
2023-01-25T11:23:25.618Z,73.40
2023-01-25T11:28:32.633Z,70.70
2023-01-25T11:33:36.918Z,73.37
2023-01-25T11:38:47.574Z,72.97
2023-01-25T11:44:10.146Z,70.73
2023-01-25T11:49:20.365Z,74.57
2023-01-25T11:54:30.116Z,78.00
2023-01-25T11:59:55.949Z,79.97
2023-01-25T12:05:25.527Z,85.30
2023-01-25T12:11:16.639Z,84.40
2023-01-25T12:16:42.053Z,92.60
2023-01-25T12:22:10.141Z,89.07
2023-01-25T12:27:21.114Z,91.83
2023-01-25T12:32:26.291Z,91.73
2023-01-25T12:37:37.173Z,89.10
2023-01-25T12:42:46.461Z,99.77
2023-01-25T12:47:55.791Z,99.43
2023-01-25T12:53:34.769Z,91.00
2023-01-25T12:58:44.980Z,87.43
2023-01-25T13:04:10.940Z,89.93
2023-01-25T13:09:21.367Z,69.10
2023-01-25T13:14:27.055Z,82.53
2023-01-25T13:19:30.932Z,71.73
2023-01-25T13:24:36.146Z,81.23
2023-01-25T13:29:40.237Z,77.47
2023-01-25T13:34:42.640Z,82.07
2023-01-25T13:39:54.606Z,83.00
2023-01-25T13:44:58.730Z,79.50
2023-01-25T13:50:09.292Z,63.47
2023-01-25T13:55:20.508Z,80.67
2023-01-25T14:00:25.042Z,77.50
2023-01-25T14:05:27.157Z,77.03
2023-01-25T14:10:29.203Z,76.53
2023-01-25T14:15:32.234Z,75.70
2023-01-25T14:20:37.006Z,57.67
2023-01-25T14:25:40.497Z,78.73
2023-01-25T14:30:44.840Z,88.23
2023-01-25T14:35:55.532Z,75.23
2023-01-25T14:41:20.476Z,85.30
2023-01-25T14:46:30.178Z,77.27
2023-01-25T14:51:35.760Z,84.37
2023-01-25T14:56:47.285Z,88.23
2023-01-25T15:01:54.418Z,71.20
2023-01-25T15:07:09.063Z,101.77
2023-01-25T15:12:31.338Z,92.47
2023-01-25T15:17:40.427Z,101.60
2023-01-25T15:22:46.614Z,96.97
2023-01-25T15:27:54.729Z,110.72
2023-01-25T15:32:56.524Z,107.20
2023-01-25T15:37:58.449Z,99.77
2023-01-25T15:43:00.462Z,99.80
2023-01-25T15:48:04.571Z,76.77
2023-01-25T15:53:18.802Z,90.87
2023-01-25T15:58:28.992Z,94.37
2023-01-25T16:03:32.521Z,84.43
2023-01-25T16:08:36.226Z,113.67
2023-01-25T16:13:41.548Z,109.07
2023-01-25T16:18:47.812Z,106.80
2023-01-25T16:23:58.998Z,84.50
2023-01-25T16:29:03.096Z,109.57
2023-01-25T16:34:05.251Z,111.03
2023-01-25T16:39:19.496Z,107.20
2023-01-25T16:44:23.653Z,105.90
2023-01-25T16:49:28.108Z,120.53
2023-01-25T16:54:30.074Z,135.27
2023-01-25T16:59:34.459Z,127.57
2023-01-25T17:04:36.256Z,109.33
2023-01-25T17:09:40.676Z,131.30
2023-01-25T17:14:46.709Z,136.07
2023-01-25T17:19:51.671Z,136.90
2023-01-25T17:24:55.681Z,145.73
2023-01-25T17:29:57.437Z,147.90
2023-01-25T17:35:01.498Z,106.43
2023-01-25T17:40:09.020Z,157.07
2023-01-25T17:45:13.510Z,160.47
2023-01-25T17:50:15.525Z,169.43
2023-01-25T17:55:17.248Z,156.23
2023-01-25T18:00:19.477Z,160.57
2023-01-25T18:05:29.351Z,168.63
2023-01-25T18:10:31.206Z,170.43
2023-01-25T18:15:39.989Z,171.97
2023-01-25T18:20:44.153Z,160.97
2023-01-25T18:25:46.254Z,163.33
2023-01-25T18:31:00.676Z,170.23
2023-01-25T18:36:06.962Z,150.70
2023-01-25T18:41:13.583Z,173.57
2023-01-25T18:46:19.468Z,167.87
2023-01-25T18:51:23.221Z,161.10
2023-01-25T18:56:27.298Z,160.77
2023-01-25T19:01:30.613Z,166.93
2023-01-25T19:06:38.597Z,131.43
2023-01-25T19:11:40.388Z,103.40
2023-01-25T19:16:46.251Z,173.53
2023-01-25T19:21:52.440Z,118.73
2023-01-25T19:26:55.341Z,176.27
2023-01-25T19:31:59.124Z,163.50
2023-01-25T19:37:05.760Z,150.60
2023-01-25T19:42:12.738Z,143.57
2023-01-25T19:47:14.825Z,136.27
2023-01-25T19:52:16.706Z,157.63
2023-01-25T19:57:20.712Z,118.80
2023-01-25T20:02:28.096Z,160.23
2023-01-25T20:07:31.154Z,149.50
2023-01-25T20:12:33.290Z,96.30
2023-01-25T20:17:36.747Z,148.50
2023-01-25T20:22:38.774Z,144.73
2023-01-25T20:27:43.098Z,98.10
2023-01-25T20:32:44.865Z,139.13
2023-01-25T20:37:50.062Z,140.13
2023-01-25T20:42:54.950Z,110.10
2023-01-25T20:47:58.907Z,150.90
2023-01-25T20:53:03.138Z,48.30
2023-01-25T20:58:09.699Z,161.03
2023-01-25T21:03:13.632Z,164.27
2023-01-25T21:08:18.656Z,181.38
2023-01-25T21:13:21.119Z,165.07
2023-01-25T21:18:30.392Z,160.70
2023-01-25T21:23:34.112Z,144.90
2023-01-25T21:28:36.862Z,109.70
2023-01-25T21:33:41.746Z,174.23
2023-01-25T21:38:47.668Z,166.37
2023-01-25T21:44:08.465Z,126.37
2023-01-25T21:49:30.695Z,112.50
2023-01-25T21:54:38.548Z,150.20
2023-01-25T21:59:40.946Z,140.90
2023-01-25T22:04:43.109Z,156.33
2023-01-25T22:09:49.467Z,138.37
2023-01-25T22:14:51.207Z,167.67
2023-01-25T22:19:55.149Z,109.93
2023-01-25T22:24:57.126Z,166.13
2023-01-25T22:30:04.961Z,92.30
2023-01-25T22:35:11.494Z,141.43
2023-01-25T22:40:15.527Z,171.80
2023-01-25T22:45:17.225Z,119.70
2023-01-25T22:50:18.923Z,61.40
2023-01-25T22:55:25.459Z,151.90
2023-01-25T23:00:29.287Z,105.53
2023-01-25T23:05:33.289Z,102.47
2023-01-25T23:10:37.627Z,106.07
2023-01-25T23:15:43.698Z,113.70
2023-01-25T23:20:47.230Z,108.93
2023-01-25T23:25:58.048Z,120.33
2023-01-25T23:31:17.665Z,119.83
2023-01-25T23:36:24.943Z,127.83
2023-01-25T23:41:30.398Z,103.13
2023-01-25T23:46:37.158Z,90.97
2023-01-25T23:51:41.552Z,121.60
2023-01-25T23:56:46.560Z,139.93
